sensor_id;sensor_type;location;lat;lon;timestamp;P1;durP1;ratioP1;P2;durP2;ratioP2
1679;SDS011;838;51.794;12.258;2023-12-22T00:00:29;4.30;;;1.70;;
1679;SDS011;838;51.794;12.258;2023-12-22T00:02:55;8.00;;;2.10;;
1679;SDS011;838;51.794;12.258;2023-12-22T00:05:21;6.20;;;2.53;;
1679;SDS011;838;51.794;12.258;2023-12-22T00:07:46;9.03;;;2.63;;
1679;SDS011;838;51.794;12.258;2023-12-22T00:10:12;7.33;;;2.00;;
1679;SDS011;838;51.794;12.258;2023-12-22T00:12:38;7.50;;;2.87;;
1679;SDS011;838;51.794;12.258;2023-12-22T00:15:04;10.03;;;2.57;;
1679;SDS011;838;51.794;12.258;2023-12-22T00:17:30;10.70;;;2.30;;
1679;SDS011;838;51.794;12.258;2023-12-22T00:19:56;9.00;;;2.20;;
1679;SDS011;838;51.794;12.258;2023-12-22T00:22:24;5.90;;;2.30;;
1679;SDS011;838;51.794;12.258;2023-12-22T00:24:52;8.30;;;2.67;;
1679;SDS011;838;51.794;12.258;2023-12-22T00:27:18;6.03;;;2.10;;
1679;SDS011;838;51.794;12.258;2023-12-22T00:29:44;7.17;;;2.13;;
1679;SDS011;838;51.794;12.258;2023-12-22T00:32:09;6.50;;;1.70;;
1679;SDS011;838;51.794;12.258;2023-12-22T00:34:35;9.07;;;2.07;;
1679;SDS011;838;51.794;12.258;2023-12-22T00:37:01;8.20;;;2.50;;
1679;SDS011;838;51.794;12.258;2023-12-22T00:39:29;7.17;;;2.20;;
1679;SDS011;838;51.794;12.258;2023-12-22T00:41:55;7.20;;;2.57;;
1679;SDS011;838;51.794;12.258;2023-12-22T00:44:21;11.63;;;2.97;;
1679;SDS011;838;51.794;12.258;2023-12-22T00:46:47;11.30;;;2.37;;
1679;SDS011;838;51.794;12.258;2023-12-22T00:49:13;9.07;;;2.87;;
1679;SDS011;838;51.794;12.258;2023-12-22T00:51:38;6.23;;;1.90;;
1679;SDS011;838;51.794;12.258;2023-12-22T00:54:04;9.03;;;2.67;;
1679;SDS011;838;51.794;12.258;2023-12-22T00:56:30;5.03;;;2.00;;
1679;SDS011;838;51.794;12.258;2023-12-22T00:58:55;13.53;;;3.57;;
1679;SDS011;838;51.794;12.258;2023-12-22T01:01:21;9.23;;;2.17;;
1679;SDS011;838;51.794;12.258;2023-12-22T01:03:47;8.13;;;2.57;;
1679;SDS011;838;51.794;12.258;2023-12-22T01:06:12;9.53;;;2.23;;
1679;SDS011;838;51.794;12.258;2023-12-22T01:08:39;8.37;;;1.70;;
1679;SDS011;838;51.794;12.258;2023-12-22T01:11:05;8.27;;;2.43;;
1679;SDS011;838;51.794;12.258;2023-12-22T01:13:31;10.90;;;3.13;;
1679;SDS011;838;51.794;12.258;2023-12-22T01:15:57;8.97;;;2.43;;
1679;SDS011;838;51.794;12.258;2023-12-22T01:18:22;6.33;;;2.20;;
1679;SDS011;838;51.794;12.258;2023-12-22T01:20:50;16.43;;;2.73;;
1679;SDS011;838;51.794;12.258;2023-12-22T01:23:15;8.50;;;2.07;;
1679;SDS011;838;51.794;12.258;2023-12-22T01:25:41;9.37;;;3.07;;
1679;SDS011;838;51.794;12.258;2023-12-22T01:28:07;9.20;;;2.40;;
1679;SDS011;838;51.794;12.258;2023-12-22T01:30:32;12.80;;;2.47;;
1679;SDS011;838;51.794;12.258;2023-12-22T01:32:58;6.03;;;2.03;;
1679;SDS011;838;51.794;12.258;2023-12-22T01:35:24;14.07;;;2.63;;
1679;SDS011;838;51.794;12.258;2023-12-22T01:37:49;10.67;;;3.20;;
1679;SDS011;838;51.794;12.258;2023-12-22T01:40:16;9.77;;;3.07;;
1679;SDS011;838;51.794;12.258;2023-12-22T01:42:41;10.97;;;2.63;;
1679;SDS011;838;51.794;12.258;2023-12-22T01:45:07;8.97;;;2.50;;
1679;SDS011;838;51.794;12.258;2023-12-22T01:47:33;7.00;;;2.97;;
1679;SDS011;838;51.794;12.258;2023-12-22T01:50:00;8.43;;;2.83;;
1679;SDS011;838;51.794;12.258;2023-12-22T01:52:26;7.77;;;2.70;;
1679;SDS011;838;51.794;12.258;2023-12-22T01:54:52;18.20;;;2.97;;
1679;SDS011;838;51.794;12.258;2023-12-22T01:57:20;11.00;;;2.83;;
1679;SDS011;838;51.794;12.258;2023-12-22T01:59:46;12.03;;;2.83;;
1679;SDS011;838;51.794;12.258;2023-12-22T02:02:14;11.37;;;2.20;;
1679;SDS011;838;51.794;12.258;2023-12-22T02:04:40;6.67;;;2.03;;
1679;SDS011;838;51.794;12.258;2023-12-22T02:07:06;10.80;;;2.80;;
1679;SDS011;838;51.794;12.258;2023-12-22T02:09:35;13.27;;;3.10;;
1679;SDS011;838;51.794;12.258;2023-12-22T02:12:02;9.13;;;2.30;;
1679;SDS011;838;51.794;12.258;2023-12-22T02:14:28;8.80;;;2.83;;
1679;SDS011;838;51.794;12.258;2023-12-22T02:16:56;9.80;;;2.30;;
1679;SDS011;838;51.794;12.258;2023-12-22T02:19:47;10.77;;;2.80;;
1679;SDS011;838;51.794;12.258;2023-12-22T02:22:13;9.27;;;2.90;;
1679;SDS011;838;51.794;12.258;2023-12-22T02:24:40;6.47;;;2.87;;
1679;SDS011;838;51.794;12.258;2023-12-22T02:30:09;7.17;;;2.70;;
1679;SDS011;838;51.794;12.258;2023-12-22T02:32:40;11.17;;;2.70;;
1679;SDS011;838;51.794;12.258;2023-12-22T02:35:10;6.20;;;2.30;;
1679;SDS011;838;51.794;12.258;2023-12-22T02:37:39;7.50;;;2.27;;
1679;SDS011;838;51.794;12.258;2023-12-22T02:40:07;11.83;;;3.30;;
1679;SDS011;838;51.794;12.258;2023-12-22T02:42:34;7.63;;;2.67;;
1679;SDS011;838;51.794;12.258;2023-12-22T02:45:03;12.77;;;2.43;;
1679;SDS011;838;51.794;12.258;2023-12-22T02:47:37;8.90;;;2.53;;
1679;SDS011;838;51.794;12.258;2023-12-22T02:50:03;7.47;;;1.80;;
1679;SDS011;838;51.794;12.258;2023-12-22T02:52:29;8.40;;;2.00;;
1679;SDS011;838;51.794;12.258;2023-12-22T02:54:56;8.93;;;2.33;;
1679;SDS011;838;51.794;12.258;2023-12-22T02:57:22;6.90;;;2.07;;
1679;SDS011;838;51.794;12.258;2023-12-22T02:59:48;11.80;;;2.80;;
1679;SDS011;838;51.794;12.258;2023-12-22T03:02:13;5.57;;;1.50;;
1679;SDS011;838;51.794;12.258;2023-12-22T03:04:39;9.60;;;2.20;;
1679;SDS011;838;51.794;12.258;2023-12-22T03:07:05;7.23;;;3.67;;
1679;SDS011;838;51.794;12.258;2023-12-22T03:09:31;11.73;;;2.70;;
1679;SDS011;838;51.794;12.258;2023-12-22T03:11:58;9.13;;;2.20;;
1679;SDS011;838;51.794;12.258;2023-12-22T03:14:30;7.80;;;2.00;;
1679;SDS011;838;51.794;12.258;2023-12-22T03:17:05;11.37;;;2.67;;
1679;SDS011;838;51.794;12.258;2023-12-22T03:19:31;6.67;;;2.70;;
1679;SDS011;838;51.794;12.258;2023-12-22T03:21:58;5.47;;;2.17;;
1679;SDS011;838;51.794;12.258;2023-12-22T03:24:24;6.70;;;2.13;;
1679;SDS011;838;51.794;12.258;2023-12-22T03:26:53;11.30;;;2.80;;
1679;SDS011;838;51.794;12.258;2023-12-22T03:29:19;6.20;;;1.90;;
1679;SDS011;838;51.794;12.258;2023-12-22T03:31:45;10.87;;;2.70;;
1679;SDS011;838;51.794;12.258;2023-12-22T03:34:11;6.37;;;2.10;;
1679;SDS011;838;51.794;12.258;2023-12-22T03:36:37;8.73;;;2.30;;
1679;SDS011;838;51.794;12.258;2023-12-22T03:39:02;9.93;;;2.50;;
1679;SDS011;838;51.794;12.258;2023-12-22T03:41:29;6.27;;;1.40;;
1679;SDS011;838;51.794;12.258;2023-12-22T03:43:55;14.53;;;3.67;;
1679;SDS011;838;51.794;12.258;2023-12-22T03:46:21;6.60;;;2.13;;
1679;SDS011;838;51.794;12.258;2023-12-22T03:48:48;7.63;;;1.90;;
1679;SDS011;838;51.794;12.258;2023-12-22T03:51:14;10.37;;;3.60;;
1679;SDS011;838;51.794;12.258;2023-12-22T03:53:40;6.03;;;2.13;;
1679;SDS011;838;51.794;12.258;2023-12-22T03:56:09;9.73;;;2.60;;
1679;SDS011;838;51.794;12.258;2023-12-22T03:58:38;5.80;;;2.00;;
1679;SDS011;838;51.794;12.258;2023-12-22T04:01:03;8.13;;;2.00;;
1679;SDS011;838;51.794;12.258;2023-12-22T04:03:32;5.20;;;1.63;;
1679;SDS011;838;51.794;12.258;2023-12-22T04:06:01;7.13;;;2.23;;
1679;SDS011;838;51.794;12.258;2023-12-22T04:08:29;5.90;;;1.90;;
1679;SDS011;838;51.794;12.258;2023-12-22T04:10:55;10.37;;;2.07;;
1679;SDS011;838;51.794;12.258;2023-12-22T04:13:21;6.10;;;1.93;;
1679;SDS011;838;51.794;12.258;2023-12-22T04:15:47;9.30;;;2.00;;
1679;SDS011;838;51.794;12.258;2023-12-22T04:18:12;7.87;;;1.80;;
1679;SDS011;838;51.794;12.258;2023-12-22T04:20:38;4.40;;;1.90;;
1679;SDS011;838;51.794;12.258;2023-12-22T04:23:04;10.13;;;2.53;;
1679;SDS011;838;51.794;12.258;2023-12-22T04:25:30;7.30;;;2.37;;
1679;SDS011;838;51.794;12.258;2023-12-22T04:27:55;7.63;;;2.17;;
1679;SDS011;838;51.794;12.258;2023-12-22T04:30:21;13.63;;;2.20;;
1679;SDS011;838;51.794;12.258;2023-12-22T04:32:47;6.77;;;1.83;;
1679;SDS011;838;51.794;12.258;2023-12-22T04:35:13;7.80;;;2.00;;
1679;SDS011;838;51.794;12.258;2023-12-22T04:37:38;6.40;;;1.60;;
1679;SDS011;838;51.794;12.258;2023-12-22T04:40:04;4.43;;;2.23;;
1679;SDS011;838;51.794;12.258;2023-12-22T04:42:30;10.00;;;2.33;;
1679;SDS011;838;51.794;12.258;2023-12-22T04:44:56;7.10;;;2.60;;
1679;SDS011;838;51.794;12.258;2023-12-22T04:47:22;6.53;;;1.90;;
1679;SDS011;838;51.794;12.258;2023-12-22T04:49:49;5.60;;;2.00;;
1679;SDS011;838;51.794;12.258;2023-12-22T04:52:14;2.87;;;1.30;;
1679;SDS011;838;51.794;12.258;2023-12-22T04:54:40;3.20;;;1.57;;
1679;SDS011;838;51.794;12.258;2023-12-22T04:57:06;5.73;;;1.83;;
1679;SDS011;838;51.794;12.258;2023-12-22T04:59:32;7.47;;;1.70;;
1679;SDS011;838;51.794;12.258;2023-12-22T05:01:57;4.67;;;1.50;;
1679;SDS011;838;51.794;12.258;2023-12-22T05:04:23;2.60;;;1.10;;
1679;SDS011;838;51.794;12.258;2023-12-22T05:06:49;8.93;;;1.90;;
1679;SDS011;838;51.794;12.258;2023-12-22T05:09:15;8.47;;;1.97;;
1679;SDS011;838;51.794;12.258;2023-12-22T05:11:41;4.10;;;1.30;;
1679;SDS011;838;51.794;12.258;2023-12-22T05:14:08;4.60;;;1.87;;
1679;SDS011;838;51.794;12.258;2023-12-22T05:16:34;8.53;;;2.60;;
1679;SDS011;838;51.794;12.258;2023-12-22T05:19:00;15.87;;;2.30;;
1679;SDS011;838;51.794;12.258;2023-12-22T05:21:26;4.20;;;1.43;;
1679;SDS011;838;51.794;12.258;2023-12-22T05:23:53;6.77;;;2.20;;
1679;SDS011;838;51.794;12.258;2023-12-22T05:26:19;5.80;;;1.83;;
1679;SDS011;838;51.794;12.258;2023-12-22T05:28:45;8.13;;;2.30;;
1679;SDS011;838;51.794;12.258;2023-12-22T05:31:11;7.73;;;1.87;;
1679;SDS011;838;51.794;12.258;2023-12-22T05:33:37;4.97;;;1.77;;
1679;SDS011;838;51.794;12.258;2023-12-22T05:36:03;7.97;;;2.20;;
1679;SDS011;838;51.794;12.258;2023-12-22T05:38:29;9.90;;;2.17;;
1679;SDS011;838;51.794;12.258;2023-12-22T05:40:55;7.37;;;2.50;;
1679;SDS011;838;51.794;12.258;2023-12-22T05:43:21;8.97;;;2.07;;
1679;SDS011;838;51.794;12.258;2023-12-22T05:45:47;10.23;;;1.77;;
1679;SDS011;838;51.794;12.258;2023-12-22T05:48:12;6.70;;;2.30;;
1679;SDS011;838;51.794;12.258;2023-12-22T05:50:38;3.77;;;1.40;;
1679;SDS011;838;51.794;12.258;2023-12-22T05:53:04;5.20;;;1.97;;
1679;SDS011;838;51.794;12.258;2023-12-22T05:55:29;14.53;;;3.37;;
1679;SDS011;838;51.794;12.258;2023-12-22T05:57:55;7.20;;;1.93;;
1679;SDS011;838;51.794;12.258;2023-12-22T06:00:21;5.80;;;2.17;;
1679;SDS011;838;51.794;12.258;2023-12-22T06:02:47;12.03;;;2.07;;
1679;SDS011;838;51.794;12.258;2023-12-22T06:05:13;10.43;;;2.50;;
1679;SDS011;838;51.794;12.258;2023-12-22T06:07:39;7.07;;;3.37;;
1679;SDS011;838;51.794;12.258;2023-12-22T06:10:06;9.37;;;2.53;;
1679;SDS011;838;51.794;12.258;2023-12-22T06:12:34;6.10;;;1.90;;
1679;SDS011;838;51.794;12.258;2023-12-22T06:15:00;8.63;;;2.10;;
1679;SDS011;838;51.794;12.258;2023-12-22T06:17:26;4.53;;;1.60;;
1679;SDS011;838;51.794;12.258;2023-12-22T06:19:52;11.90;;;2.40;;
1679;SDS011;838;51.794;12.258;2023-12-22T06:22:17;8.77;;;2.17;;
1679;SDS011;838;51.794;12.258;2023-12-22T06:24:43;6.10;;;2.30;;
1679;SDS011;838;51.794;12.258;2023-12-22T06:27:09;9.37;;;2.17;;
1679;SDS011;838;51.794;12.258;2023-12-22T06:29:35;5.17;;;1.83;;
1679;SDS011;838;51.794;12.258;2023-12-22T06:32:01;8.17;;;3.13;;
1679;SDS011;838;51.794;12.258;2023-12-22T06:34:27;4.03;;;1.97;;
1679;SDS011;838;51.794;12.258;2023-12-22T06:36:52;3.73;;;1.80;;
1679;SDS011;838;51.794;12.258;2023-12-22T06:39:18;12.13;;;2.20;;
1679;SDS011;838;51.794;12.258;2023-12-22T06:41:44;6.07;;;2.00;;
1679;SDS011;838;51.794;12.258;2023-12-22T06:44:10;8.40;;;2.30;;
1679;SDS011;838;51.794;12.258;2023-12-22T06:46:36;5.47;;;1.57;;
1679;SDS011;838;51.794;12.258;2023-12-22T06:49:02;4.90;;;1.37;;
1679;SDS011;838;51.794;12.258;2023-12-22T06:51:29;8.97;;;2.70;;
1679;SDS011;838;51.794;12.258;2023-12-22T06:53:55;3.93;;;1.20;;
1679;SDS011;838;51.794;12.258;2023-12-22T06:56:22;2.60;;;1.07;;
1679;SDS011;838;51.794;12.258;2023-12-22T06:58:50;2.70;;;1.10;;
1679;SDS011;838;51.794;12.258;2023-12-22T07:01:18;2.50;;;1.10;;
1679;SDS011;838;51.794;12.258;2023-12-22T07:04:02;2.87;;;1.10;;
1679;SDS011;838;51.794;12.258;2023-12-22T07:06:30;4.10;;;1.60;;
1679;SDS011;838;51.794;12.258;2023-12-22T07:11:48;2.50;;;1.00;;
1679;SDS011;838;51.794;12.258;2023-12-22T07:14:21;2.70;;;1.10;;
1679;SDS011;838;51.794;12.258;2023-12-22T07:16:47;3.50;;;1.30;;
1679;SDS011;838;51.794;12.258;2023-12-22T07:19:12;2.60;;;1.17;;
1679;SDS011;838;51.794;12.258;2023-12-22T07:21:39;3.33;;;1.10;;
1679;SDS011;838;51.794;12.258;2023-12-22T07:24:05;4.27;;;1.10;;
1679;SDS011;838;51.794;12.258;2023-12-22T07:26:31;2.97;;;1.27;;
1679;SDS011;838;51.794;12.258;2023-12-22T07:28:57;3.83;;;1.67;;
1679;SDS011;838;51.794;12.258;2023-12-22T07:31:26;7.40;;;1.70;;
1679;SDS011;838;51.794;12.258;2023-12-22T07:33:52;4.20;;;1.33;;
1679;SDS011;838;51.794;12.258;2023-12-22T07:36:18;9.23;;;1.80;;
1679;SDS011;838;51.794;12.258;2023-12-22T07:38:43;4.97;;;1.60;;
1679;SDS011;838;51.794;12.258;2023-12-22T07:41:09;4.90;;;1.80;;
1679;SDS011;838;51.794;12.258;2023-12-22T07:43:35;6.77;;;1.90;;
1679;SDS011;838;51.794;12.258;2023-12-22T07:46:01;4.80;;;2.13;;
1679;SDS011;838;51.794;12.258;2023-12-22T07:48:27;3.80;;;2.10;;
1679;SDS011;838;51.794;12.258;2023-12-22T07:50:53;6.03;;;2.23;;
1679;SDS011;838;51.794;12.258;2023-12-22T07:53:19;3.73;;;1.50;;
1679;SDS011;838;51.794;12.258;2023-12-22T07:55:45;10.87;;;2.03;;
1679;SDS011;838;51.794;12.258;2023-12-22T07:58:12;5.97;;;2.00;;
1679;SDS011;838;51.794;12.258;2023-12-22T08:00:38;6.47;;;2.20;;
1679;SDS011;838;51.794;12.258;2023-12-22T08:03:03;8.30;;;2.03;;
1679;SDS011;838;51.794;12.258;2023-12-22T08:05:29;5.60;;;1.80;;
1679;SDS011;838;51.794;12.258;2023-12-22T08:07:55;6.40;;;1.97;;
1679;SDS011;838;51.794;12.258;2023-12-22T08:10:21;5.80;;;1.87;;
1679;SDS011;838;51.794;12.258;2023-12-22T08:12:47;4.93;;;1.67;;
1679;SDS011;838;51.794;12.258;2023-12-22T08:15:12;4.80;;;1.60;;
1679;SDS011;838;51.794;12.258;2023-12-22T08:17:48;3.70;;;1.27;;
1679;SDS011;838;51.794;12.258;2023-12-22T08:20:17;3.27;;;1.47;;
1679;SDS011;838;51.794;12.258;2023-12-22T08:22:44;3.50;;;1.33;;
1679;SDS011;838;51.794;12.258;2023-12-22T08:25:14;3.00;;;1.30;;
1679;SDS011;838;51.794;12.258;2023-12-22T08:27:40;3.10;;;1.40;;
1679;SDS011;838;51.794;12.258;2023-12-22T08:30:10;2.70;;;1.30;;
1679;SDS011;838;51.794;12.258;2023-12-22T08:32:36;2.50;;;1.13;;
1679;SDS011;838;51.794;12.258;2023-12-22T08:35:02;4.00;;;1.00;;
1679;SDS011;838;51.794;12.258;2023-12-22T08:37:29;5.40;;;1.20;;
1679;SDS011;838;51.794;12.258;2023-12-22T08:39:55;4.30;;;1.20;;
1679;SDS011;838;51.794;12.258;2023-12-22T08:42:21;4.33;;;1.47;;
1679;SDS011;838;51.794;12.258;2023-12-22T08:44:47;4.97;;;1.40;;
1679;SDS011;838;51.794;12.258;2023-12-22T08:47:13;3.80;;;1.50;;
1679;SDS011;838;51.794;12.258;2023-12-22T08:49:39;5.17;;;1.70;;
1679;SDS011;838;51.794;12.258;2023-12-22T08:52:05;4.47;;;1.43;;
1679;SDS011;838;51.794;12.258;2023-12-22T08:54:30;7.47;;;2.10;;
1679;SDS011;838;51.794;12.258;2023-12-22T08:56:56;6.30;;;1.57;;
1679;SDS011;838;51.794;12.258;2023-12-22T08:59:22;5.50;;;1.77;;
1679;SDS011;838;51.794;12.258;2023-12-22T09:01:47;4.97;;;1.43;;
1679;SDS011;838;51.794;12.258;2023-12-22T09:04:13;8.53;;;1.53;;
1679;SDS011;838;51.794;12.258;2023-12-22T09:06:40;5.40;;;1.67;;
1679;SDS011;838;51.794;12.258;2023-12-22T09:09:05;5.50;;;1.40;;
1679;SDS011;838;51.794;12.258;2023-12-22T09:11:33;4.77;;;1.50;;
1679;SDS011;838;51.794;12.258;2023-12-22T09:13:59;3.43;;;1.30;;
1679;SDS011;838;51.794;12.258;2023-12-22T09:16:25;4.37;;;1.43;;
1679;SDS011;838;51.794;12.258;2023-12-22T09:18:51;4.97;;;2.30;;
1679;SDS011;838;51.794;12.258;2023-12-22T09:21:17;6.10;;;1.67;;
1679;SDS011;838;51.794;12.258;2023-12-22T09:23:44;5.97;;;1.93;;
1679;SDS011;838;51.794;12.258;2023-12-22T09:26:11;6.43;;;1.83;;
1679;SDS011;838;51.794;12.258;2023-12-22T09:28:40;2.97;;;1.23;;
1679;SDS011;838;51.794;12.258;2023-12-22T09:31:07;6.93;;;1.50;;
1679;SDS011;838;51.794;12.258;2023-12-22T09:33:33;5.47;;;1.70;;
1679;SDS011;838;51.794;12.258;2023-12-22T09:35:59;6.70;;;1.70;;
1679;SDS011;838;51.794;12.258;2023-12-22T09:38:25;4.13;;;1.80;;
1679;SDS011;838;51.794;12.258;2023-12-22T09:40:51;11.43;;;2.20;;
1679;SDS011;838;51.794;12.258;2023-12-22T09:43:16;7.97;;;1.47;;
1679;SDS011;838;51.794;12.258;2023-12-22T09:45:44;6.87;;;2.00;;
1679;SDS011;838;51.794;12.258;2023-12-22T09:48:12;4.93;;;1.57;;
1679;SDS011;838;51.794;12.258;2023-12-22T09:50:42;5.40;;;1.20;;
1679;SDS011;838;51.794;12.258;2023-12-22T09:53:12;8.00;;;1.83;;
1679;SDS011;838;51.794;12.258;2023-12-22T09:55:44;7.03;;;1.70;;
1679;SDS011;838;51.794;12.258;2023-12-22T09:58:12;6.60;;;1.60;;
1679;SDS011;838;51.794;12.258;2023-12-22T10:00:42;5.03;;;1.53;;
1679;SDS011;838;51.794;12.258;2023-12-22T10:03:09;3.50;;;1.40;;
1679;SDS011;838;51.794;12.258;2023-12-22T10:05:42;6.50;;;1.83;;
1679;SDS011;838;51.794;12.258;2023-12-22T10:08:10;6.17;;;1.77;;
1679;SDS011;838;51.794;12.258;2023-12-22T10:10:37;3.63;;;1.20;;
1679;SDS011;838;51.794;12.258;2023-12-22T10:13:05;4.73;;;1.63;;
1679;SDS011;838;51.794;12.258;2023-12-22T10:15:35;6.40;;;1.83;;
1679;SDS011;838;51.794;12.258;2023-12-22T10:18:04;5.27;;;1.90;;
1679;SDS011;838;51.794;12.258;2023-12-22T10:20:31;6.97;;;1.60;;
1679;SDS011;838;51.794;12.258;2023-12-22T10:22:57;13.80;;;2.20;;
1679;SDS011;838;51.794;12.258;2023-12-22T10:25:27;7.07;;;1.57;;
1679;SDS011;838;51.794;12.258;2023-12-22T10:27:54;7.70;;;1.63;;
1679;SDS011;838;51.794;12.258;2023-12-22T10:30:21;6.57;;;2.37;;
1679;SDS011;838;51.794;12.258;2023-12-22T10:32:49;7.73;;;2.50;;
1679;SDS011;838;51.794;12.258;2023-12-22T10:35:17;9.73;;;3.23;;
1679;SDS011;838;51.794;12.258;2023-12-22T10:37:43;8.30;;;2.77;;
1679;SDS011;838;51.794;12.258;2023-12-22T10:40:10;8.07;;;2.17;;
1679;SDS011;838;51.794;12.258;2023-12-22T10:42:36;11.97;;;2.87;;
1679;SDS011;838;51.794;12.258;2023-12-22T10:45:02;16.97;;;8.80;;
1679;SDS011;838;51.794;12.258;2023-12-22T10:47:29;6.97;;;3.60;;
1679;SDS011;838;51.794;12.258;2023-12-22T10:49:55;9.10;;;4.13;;
1679;SDS011;838;51.794;12.258;2023-12-22T10:52:20;9.93;;;5.13;;
1679;SDS011;838;51.794;12.258;2023-12-22T10:54:47;8.80;;;4.47;;
1679;SDS011;838;51.794;12.258;2023-12-22T10:57:16;14.03;;;6.07;;
1679;SDS011;838;51.794;12.258;2023-12-22T10:59:44;7.87;;;2.93;;
1679;SDS011;838;51.794;12.258;2023-12-22T11:02:15;9.00;;;3.13;;
1679;SDS011;838;51.794;12.258;2023-12-22T11:04:46;13.23;;;3.20;;
1679;SDS011;838;51.794;12.258;2023-12-22T11:07:15;10.47;;;3.27;;
1679;SDS011;838;51.794;12.258;2023-12-22T11:09:44;8.97;;;4.87;;
1679;SDS011;838;51.794;12.258;2023-12-22T11:12:12;16.33;;;4.13;;
1679;SDS011;838;51.794;12.258;2023-12-22T11:14:39;11.47;;;3.03;;
1679;SDS011;838;51.794;12.258;2023-12-22T11:17:05;12.63;;;2.80;;
1679;SDS011;838;51.794;12.258;2023-12-22T11:19:32;10.43;;;3.03;;
1679;SDS011;838;51.794;12.258;2023-12-22T11:22:00;8.23;;;2.23;;
1679;SDS011;838;51.794;12.258;2023-12-22T11:24:29;5.43;;;2.60;;
1679;SDS011;838;51.794;12.258;2023-12-22T11:26:57;9.03;;;2.80;;
1679;SDS011;838;51.794;12.258;2023-12-22T11:29:25;7.03;;;2.73;;
1679;SDS011;838;51.794;12.258;2023-12-22T11:31:51;9.77;;;2.93;;
1679;SDS011;838;51.794;12.258;2023-12-22T11:34:23;6.97;;;2.17;;
1679;SDS011;838;51.794;12.258;2023-12-22T11:36:51;8.17;;;2.27;;
1679;SDS011;838;51.794;12.258;2023-12-22T11:39:18;8.77;;;1.77;;
1679;SDS011;838;51.794;12.258;2023-12-22T11:41:44;3.87;;;1.47;;
1679;SDS011;838;51.794;12.258;2023-12-22T11:44:12;6.53;;;1.47;;
1679;SDS011;838;51.794;12.258;2023-12-22T11:46:38;4.00;;;1.40;;
1679;SDS011;838;51.794;12.258;2023-12-22T11:49:03;6.00;;;1.60;;
1679;SDS011;838;51.794;12.258;2023-12-22T11:51:33;3.63;;;1.30;;
1679;SDS011;838;51.794;12.258;2023-12-22T11:54:02;4.83;;;1.37;;
1679;SDS011;838;51.794;12.258;2023-12-22T11:56:28;4.30;;;1.80;;
1679;SDS011;838;51.794;12.258;2023-12-22T11:58:57;4.03;;;1.40;;
1679;SDS011;838;51.794;12.258;2023-12-22T12:01:24;8.70;;;1.37;;
1679;SDS011;838;51.794;12.258;2023-12-22T12:03:51;3.13;;;1.27;;
1679;SDS011;838;51.794;12.258;2023-12-22T12:08:55;4.83;;;1.57;;
1679;SDS011;838;51.794;12.258;2023-12-22T12:11:22;9.97;;;1.67;;
1679;SDS011;838;51.794;12.258;2023-12-22T12:13:49;6.27;;;1.77;;
1679;SDS011;838;51.794;12.258;2023-12-22T12:16:21;4.73;;;1.53;;
1679;SDS011;838;51.794;12.258;2023-12-22T12:18:48;4.20;;;1.17;;
1679;SDS011;838;51.794;12.258;2023-12-22T12:21:15;5.07;;;1.53;;
1679;SDS011;838;51.794;12.258;2023-12-22T12:23:41;5.37;;;1.97;;
1679;SDS011;838;51.794;12.258;2023-12-22T12:26:07;3.47;;;1.10;;
1679;SDS011;838;51.794;12.258;2023-12-22T12:28:34;5.87;;;1.10;;
1679;SDS011;838;51.794;12.258;2023-12-22T12:31:02;3.43;;;1.17;;
1679;SDS011;838;51.794;12.258;2023-12-22T12:33:32;3.03;;;0.90;;
1679;SDS011;838;51.794;12.258;2023-12-22T12:35:59;3.20;;;1.30;;
1679;SDS011;838;51.794;12.258;2023-12-22T12:38:35;2.90;;;1.30;;
1679;SDS011;838;51.794;12.258;2023-12-22T12:41:04;6.33;;;1.20;;
1679;SDS011;838;51.794;12.258;2023-12-22T12:43:31;3.10;;;1.20;;
1679;SDS011;838;51.794;12.258;2023-12-22T12:46:04;5.33;;;1.60;;
1679;SDS011;838;51.794;12.258;2023-12-22T12:48:30;6.17;;;3.23;;
1679;SDS011;838;51.794;12.258;2023-12-22T12:51:03;7.03;;;3.80;;
1679;SDS011;838;51.794;12.258;2023-12-22T12:53:33;17.27;;;7.27;;
1679;SDS011;838;51.794;12.258;2023-12-22T12:56:01;20.33;;;8.03;;
1679;SDS011;838;51.794;12.258;2023-12-22T12:58:30;22.03;;;10.00;;
1679;SDS011;838;51.794;12.258;2023-12-22T13:01:04;9.10;;;4.80;;
1679;SDS011;838;51.794;12.258;2023-12-22T13:03:31;6.87;;;2.80;;
1679;SDS011;838;51.794;12.258;2023-12-22T13:06:07;7.10;;;2.63;;
1679;SDS011;838;51.794;12.258;2023-12-22T13:08:33;4.47;;;2.00;;
1679;SDS011;838;51.794;12.258;2023-12-22T13:10:59;7.77;;;1.90;;
1679;SDS011;838;51.794;12.258;2023-12-22T13:13:26;8.13;;;1.50;;
1679;SDS011;838;51.794;12.258;2023-12-22T13:15:52;12.57;;;5.47;;
1679;SDS011;838;51.794;12.258;2023-12-22T13:18:18;12.63;;;6.90;;
1679;SDS011;838;51.794;12.258;2023-12-22T13:20:43;13.80;;;6.10;;
1679;SDS011;838;51.794;12.258;2023-12-22T13:23:09;6.90;;;2.77;;
1679;SDS011;838;51.794;12.258;2023-12-22T13:25:41;4.77;;;2.97;;
1679;SDS011;838;51.794;12.258;2023-12-22T13:28:07;23.57;;;10.27;;
1679;SDS011;838;51.794;12.258;2023-12-22T13:33:01;24.90;;;11.23;;
1679;SDS011;838;51.794;12.258;2023-12-22T13:35:28;24.83;;;9.43;;
1679;SDS011;838;51.794;12.258;2023-12-22T13:37:54;13.77;;;6.07;;
1679;SDS011;838;51.794;12.258;2023-12-22T13:40:20;11.17;;;4.47;;
1679;SDS011;838;51.794;12.258;2023-12-22T13:42:58;23.60;;;8.30;;
1679;SDS011;838;51.794;12.258;2023-12-22T13:45:26;10.43;;;5.03;;
1679;SDS011;838;51.794;12.258;2023-12-22T13:47:53;19.23;;;7.13;;
1679;SDS011;838;51.794;12.258;2023-12-22T13:50:19;11.33;;;4.07;;
1679;SDS011;838;51.794;12.258;2023-12-22T13:52:49;6.57;;;2.27;;
1679;SDS011;838;51.794;12.258;2023-12-22T13:55:17;4.27;;;2.20;;
1679;SDS011;838;51.794;12.258;2023-12-22T13:57:44;4.30;;;2.10;;
1679;SDS011;838;51.794;12.258;2023-12-22T14:02:48;3.00;;;1.30;;
1679;SDS011;838;51.794;12.258;2023-12-22T14:05:14;3.63;;;1.40;;
1679;SDS011;838;51.794;12.258;2023-12-22T14:07:43;5.13;;;1.30;;
1679;SDS011;838;51.794;12.258;2023-12-22T14:10:10;3.97;;;1.47;;
1679;SDS011;838;51.794;12.258;2023-12-22T14:12:39;3.50;;;1.30;;
1679;SDS011;838;51.794;12.258;2023-12-22T14:15:06;4.50;;;1.50;;
1679;SDS011;838;51.794;12.258;2023-12-22T14:17:35;5.00;;;1.43;;
1679;SDS011;838;51.794;12.258;2023-12-22T14:20:01;8.00;;;2.60;;
1679;SDS011;838;51.794;12.258;2023-12-22T14:22:29;4.50;;;1.90;;
1679;SDS011;838;51.794;12.258;2023-12-22T14:24:55;4.60;;;1.80;;
1679;SDS011;838;51.794;12.258;2023-12-22T14:27:24;4.70;;;2.07;;
1679;SDS011;838;51.794;12.258;2023-12-22T14:29:50;16.47;;;7.00;;
1679;SDS011;838;51.794;12.258;2023-12-22T14:32:15;5.83;;;1.80;;
1679;SDS011;838;51.794;12.258;2023-12-22T14:34:44;14.93;;;5.27;;
1679;SDS011;838;51.794;12.258;2023-12-22T14:37:10;4.13;;;1.50;;
1679;SDS011;838;51.794;12.258;2023-12-22T14:39:36;3.80;;;2.13;;
1679;SDS011;838;51.794;12.258;2023-12-22T14:42:01;5.00;;;1.70;;
1679;SDS011;838;51.794;12.258;2023-12-22T14:44:30;4.23;;;1.70;;
1679;SDS011;838;51.794;12.258;2023-12-22T14:46:56;7.50;;;1.70;;
1679;SDS011;838;51.794;12.258;2023-12-22T14:49:22;3.63;;;1.50;;
1679;SDS011;838;51.794;12.258;2023-12-22T14:51:47;6.20;;;1.77;;
1679;SDS011;838;51.794;12.258;2023-12-22T14:54:18;2.60;;;1.30;;
1679;SDS011;838;51.794;12.258;2023-12-22T14:56:47;4.60;;;1.53;;
1679;SDS011;838;51.794;12.258;2023-12-22T14:59:14;5.03;;;3.90;;
1679;SDS011;838;51.794;12.258;2023-12-22T15:01:40;6.37;;;1.53;;
1679;SDS011;838;51.794;12.258;2023-12-22T15:04:06;3.93;;;1.90;;
1679;SDS011;838;51.794;12.258;2023-12-22T15:06:33;5.53;;;1.57;;
1679;SDS011;838;51.794;12.258;2023-12-22T15:09:02;5.03;;;2.70;;
1679;SDS011;838;51.794;12.258;2023-12-22T15:11:28;6.30;;;1.80;;
1679;SDS011;838;51.794;12.258;2023-12-22T15:13:54;3.77;;;1.40;;
1679;SDS011;838;51.794;12.258;2023-12-22T15:16:20;4.10;;;1.20;;
1679;SDS011;838;51.794;12.258;2023-12-22T15:18:46;6.00;;;1.43;;
1679;SDS011;838;51.794;12.258;2023-12-22T15:21:21;5.13;;;1.93;;
1679;SDS011;838;51.794;12.258;2023-12-22T15:23:47;3.23;;;1.37;;